createdAt,value
2022-12-05T00:01:23.356Z,100923.56
2022-12-05T00:03:51.587Z,100973.81
2022-12-05T00:06:18.969Z,100932.28
2022-12-05T00:08:45.952Z,100947.88
2022-12-05T00:11:14.659Z,100930.56
2022-12-05T00:13:42.508Z,100966.97
2022-12-05T00:16:11.449Z,100966.97
2022-12-05T00:18:38.541Z,100963.53
2022-12-05T00:21:05.731Z,100963.50
2022-12-05T00:23:32.216Z,100961.75
2022-12-05T00:26:03.439Z,100970.47
2022-12-05T00:28:31.930Z,100946.19
2022-12-05T00:31:02.541Z,100850.81
2022-12-05T00:33:29.087Z,100922.75
2022-12-05T00:35:55.387Z,100976.50
2022-12-05T00:38:21.698Z,100916.63
2022-12-05T00:40:48.023Z,100952.22
2022-12-05T00:43:14.406Z,100944.41
2022-12-05T00:45:40.867Z,100950.44
2022-12-05T00:48:07.286Z,100928.81
2022-12-05T00:50:33.705Z,100940.06
2022-12-05T00:53:00.096Z,100832.59
2022-12-05T00:55:26.388Z,100932.25
2022-12-05T00:57:52.712Z,100936.56
2022-12-05T01:00:19.420Z,100925.34
2022-12-05T01:02:45.847Z,100939.28
2022-12-05T01:05:12.875Z,100935.81
2022-12-05T01:07:39.342Z,100918.38
2022-12-05T01:10:06.486Z,100925.41
2022-12-05T01:12:33.341Z,100903.72
2022-12-05T01:14:59.689Z,100969.63
2022-12-05T01:17:26.194Z,100950.53
2022-12-05T01:19:52.722Z,100958.31
2022-12-05T01:22:19.087Z,100835.28
2022-12-05T01:24:45.426Z,100939.28
2022-12-05T01:27:11.835Z,100944.44
2022-12-05T01:29:38.247Z,100942.72
2022-12-05T01:32:04.910Z,100946.19
2022-12-05T01:34:31.370Z,100901.97
2022-12-05T01:36:57.752Z,100934.06
2022-12-05T01:39:24.199Z,100939.19
2022-12-05T01:41:50.819Z,100935.75
2022-12-05T01:44:17.136Z,100985.16
2022-12-05T01:46:44.596Z,100985.13
2022-12-05T01:49:15.227Z,100950.44
2022-12-05T01:51:46.687Z,100917.53
2022-12-05T01:54:14.873Z,100991.19
2022-12-05T01:56:44.412Z,100939.22
2022-12-05T01:59:12.229Z,100994.63
2022-12-05T02:01:39.362Z,100925.31
2022-12-05T02:04:06.664Z,100978.19
2022-12-05T02:06:33.855Z,100996.34
2022-12-05T02:09:00.482Z,100963.44
2022-12-05T02:11:29.584Z,100970.38
2022-12-05T02:14:38.819Z,100972.09
2022-12-05T02:17:42.407Z,100991.19
2022-12-05T02:20:38.576Z,100991.19
2022-12-05T02:23:29.385Z,100965.16
2022-12-05T02:26:16.850Z,100988.56
2022-12-05T02:29:05.071Z,100989.44
2022-12-05T02:31:51.412Z,100939.94
2022-12-05T02:34:31.672Z,100985.94
2022-12-05T02:37:23.063Z,100942.63
2022-12-05T02:40:00.853Z,100994.63
2022-12-05T02:42:42.873Z,100970.34
2022-12-05T02:45:12.165Z,100991.19
2022-12-05T02:47:44.820Z,100926.16
2022-12-05T02:50:15.505Z,100966.94
2022-12-05T02:52:44.913Z,100983.44
2022-12-05T02:55:14.439Z,100951.38
2022-12-05T02:57:46.755Z,100975.59
2022-12-05T03:00:13.664Z,100973.84
2022-12-05T03:02:41.213Z,100948.75
2022-12-05T03:05:25.853Z,100995.53
2022-12-05T03:07:54.907Z,100998.09
2022-12-05T03:10:23.825Z,100986.00
2022-12-05T03:12:58.046Z,100897.50
2022-12-05T03:15:33.201Z,100998.94
2022-12-05T03:18:10.363Z,100973.81
2022-12-05T03:21:21.651Z,100979.03
2022-12-05T03:23:53.878Z,101005.00
2022-12-05T03:26:34.885Z,101002.41
2022-12-05T03:29:09.975Z,101006.72
2022-12-05T03:31:52.769Z,101003.25
2022-12-05T03:34:32.258Z,100970.22
2022-12-05T03:37:05.282Z,100976.34
2022-12-05T03:39:35.930Z,100965.06
2022-12-05T03:42:11.100Z,100998.03
2022-12-05T03:44:45.093Z,100999.69
2022-12-05T03:47:21.516Z,100969.31
2022-12-05T03:49:52.608Z,100919.88
2022-12-05T03:52:27.225Z,101015.22
2022-12-05T03:54:57.403Z,100967.53
2022-12-05T03:57:32.996Z,101006.53
2022-12-05T04:00:04.170Z,100983.97
2022-12-05T04:02:45.093Z,100942.38
2022-12-05T04:05:26.669Z,100957.09
2022-12-05T04:08:01.437Z,100970.13
2022-12-05T04:10:48.662Z,101015.22
2022-12-05T04:13:44.077Z,101017.81
2022-12-05T04:16:35.609Z,101024.72
2022-12-05T04:19:09.205Z,100997.84
2022-12-05T04:21:43.080Z,101022.13
2022-12-05T04:24:34.081Z,100987.41
2022-12-05T04:27:15.503Z,101023.88
2022-12-05T04:30:02.641Z,100989.16
2022-12-05T04:32:38.516Z,100998.69
2022-12-05T04:35:13.985Z,101009.94
2022-12-05T04:37:44.435Z,100980.44
2022-12-05T04:40:28.274Z,101026.44
2022-12-05T04:42:56.487Z,100985.66
2022-12-05T04:45:25.671Z,100980.44
2022-12-05T04:47:57.202Z,100985.63
2022-12-05T04:50:25.944Z,101024.69
2022-12-05T04:52:58.024Z,100995.13
2022-12-05T04:55:26.669Z,101028.94
2022-12-05T04:58:01.765Z,101013.34
2022-12-05T05:00:30.646Z,101017.69
2022-12-05T05:03:23.231Z,101028.97
2022-12-05T05:05:53.044Z,101029.84
2022-12-05T05:08:22.937Z,101001.19
2022-12-05T05:11:03.914Z,101002.91
2022-12-05T05:13:30.310Z,101016.78
2022-12-05T05:15:56.691Z,101001.97
2022-12-05T05:18:23.181Z,100992.53
2022-12-05T05:20:49.640Z,101009.88
2022-12-05T05:23:16.087Z,100917.94
2022-12-05T05:25:42.441Z,101033.28
2022-12-05T05:28:08.788Z,101002.03
2022-12-05T05:30:35.168Z,101021.88
2022-12-05T05:33:01.609Z,101015.81
2022-12-05T05:35:28.019Z,100935.09
2022-12-05T05:37:54.373Z,100978.50
2022-12-05T05:40:20.704Z,100989.78
2022-12-05T05:42:49.574Z,101041.00
2022-12-05T05:45:16.668Z,101014.09
2022-12-05T05:47:43.183Z,101032.28
2022-12-05T05:50:13.872Z,101042.75
2022-12-05T05:52:42.797Z,101004.50
2022-12-05T05:55:09.889Z,100988.88
2022-12-05T05:57:36.708Z,100818.81
2022-12-05T06:00:06.508Z,101046.13
2022-12-05T06:02:34.918Z,100985.38
2022-12-05T06:05:01.901Z,100983.59
2022-12-05T06:07:28.418Z,101053.88
2022-12-05T06:09:54.787Z,100980.06
2022-12-05T06:12:21.273Z,101037.31
2022-12-05T06:14:49.189Z,100991.34
2022-12-05T06:17:16.453Z,101064.22
2022-12-05T06:19:42.881Z,101009.63
2022-12-05T06:22:09.572Z,101030.38
2022-12-05T06:24:35.914Z,101049.47
2022-12-05T06:27:02.254Z,101032.97
2022-12-05T06:29:33.518Z,101007.81
2022-12-05T06:32:00.448Z,101034.66
2022-12-05T06:34:26.913Z,101028.56
2022-12-05T06:36:53.225Z,101049.44
2022-12-05T06:39:19.608Z,101042.50
2022-12-05T06:41:46.321Z,101013.00
2022-12-05T06:44:12.689Z,101052.03
2022-12-05T06:46:39.051Z,101057.28
2022-12-05T06:49:05.401Z,101062.47
2022-12-05T06:51:31.710Z,101050.31
2022-12-05T06:53:58.232Z,101044.22
2022-12-05T06:56:24.541Z,101054.56
2022-12-05T06:58:52.364Z,101016.41
2022-12-05T07:01:40.680Z,101096.25
2022-12-05T07:04:12.556Z,101090.19
2022-12-05T07:06:40.658Z,101064.91
2022-12-05T07:09:07.605Z,101035.34
2022-12-05T07:11:34.959Z,101076.97
2022-12-05T07:14:10.168Z,101064.66
2022-12-05T07:16:41.182Z,101071.59
2022-12-05T07:19:07.647Z,101104.59
2022-12-05T07:21:33.961Z,101094.03
2022-12-05T07:24:00.265Z,101075.69
2022-12-05T07:26:26.679Z,101074.00
2022-12-05T07:28:57.275Z,101105.22
2022-12-05T07:31:25.944Z,101097.28
2022-12-05T07:33:52.370Z,101102.59
2022-12-05T07:36:22.337Z,101135.53
2022-12-05T07:38:48.740Z,101144.13
2022-12-05T07:41:21.158Z,101130.28
2022-12-05T07:43:47.563Z,101122.44
2022-12-05T07:46:14.465Z,101130.28
2022-12-05T07:48:40.933Z,101084.91
2022-12-05T07:51:09.456Z,101135.31
2022-12-05T07:53:36.621Z,101122.06
2022-12-05T07:56:05.695Z,101144.56
2022-12-05T07:58:33.144Z,101124.44
2022-12-05T08:01:11.588Z,101132.16
2022-12-05T08:03:41.636Z,101126.03
2022-12-05T08:06:10.674Z,101145.19
2022-12-05T08:08:37.210Z,101096.56
2022-12-05T08:11:23.703Z,101127.88
2022-12-05T08:13:50.353Z,101154.97
2022-12-05T08:16:19.409Z,101166.13
2022-12-05T08:18:46.814Z,101167.84
2022-12-05T08:21:16.081Z,101167.91
2022-12-05T08:23:45.824Z,101133.13
2022-12-05T08:26:15.202Z,101168.84
2022-12-05T08:28:42.949Z,101117.44
2022-12-05T08:31:17.513Z,101180.69
2022-12-05T08:33:44.391Z,101165.78
2022-12-05T08:36:18.252Z,101143.06
2022-12-05T08:38:45.556Z,101186.50
2022-12-05T08:41:15.009Z,101157.78
2022-12-05T08:43:41.724Z,101074.38
2022-12-05T08:46:08.984Z,101172.66
2022-12-05T08:48:36.434Z,101191.88
2022-12-05T08:51:08.125Z,101200.59
2022-12-05T08:53:40.925Z,101054.72
2022-12-05T08:56:10.987Z,101158.03
2022-12-05T08:58:37.803Z,101157.22
2022-12-05T09:01:15.478Z,101199.06
2022-12-05T09:03:47.634Z,101127.72
2022-12-05T09:06:20.449Z,101200.72
2022-12-05T09:08:47.443Z,101201.50
2022-12-05T09:11:15.330Z,101209.34
2022-12-05T09:13:42.631Z,101125.09
2022-12-05T09:16:16.042Z,101158.91
2022-12-05T09:18:43.552Z,101206.84
2022-12-05T09:21:16.583Z,101210.31
2022-12-05T09:23:43.419Z,101217.09
2022-12-05T09:26:12.821Z,101146.56
2022-12-05T09:28:39.891Z,101168.31
2022-12-05T09:31:13.102Z,101121.28
2022-12-05T09:33:39.806Z,101124.81
2022-12-05T09:36:09.409Z,101220.41
2022-12-05T09:38:35.789Z,101164.84
2022-12-05T09:41:17.675Z,101141.19
2022-12-05T09:43:58.666Z,101211.56
2022-12-05T09:46:43.880Z,101142.59
2022-12-05T09:49:12.868Z,101172.84
2022-12-05T09:51:44.702Z,101148.47
2022-12-05T09:54:13.213Z,101159.66
2022-12-05T09:56:43.343Z,101175.31
2022-12-05T09:59:20.423Z,101222.41
2022-12-05T10:02:07.337Z,101223.28
2022-12-05T10:05:00.375Z,101191.16
2022-12-05T10:07:38.240Z,101133.00
2022-12-05T10:10:20.175Z,101210.47
2022-12-05T10:13:17.601Z,101219.41
2022-12-05T10:15:53.024Z,101119.44
2022-12-05T10:18:31.905Z,101180.50
2022-12-05T10:21:15.421Z,101224.09
2022-12-05T10:23:58.270Z,101227.69
2022-12-05T10:26:30.708Z,101218.09
2022-12-05T10:29:02.578Z,101229.50
2022-12-05T10:31:36.126Z,101224.28
2022-12-05T10:34:12.139Z,101181.78
2022-12-05T10:36:38.497Z,101156.53
2022-12-05T10:39:11.128Z,101213.84
2022-12-05T10:41:38.071Z,101199.28
2022-12-05T10:44:05.728Z,101216.56
2022-12-05T10:46:32.198Z,101151.41
2022-12-05T10:48:59.416Z,101103.69
2022-12-05T10:51:34.011Z,101220.16
2022-12-05T10:54:22.656Z,101171.50
2022-12-05T10:56:53.766Z,101187.19
2022-12-05T10:59:25.574Z,101159.31
2022-12-05T11:01:55.165Z,101195.88
2022-12-05T11:04:30.494Z,101124.38
2022-12-05T11:07:00.545Z,101223.69
2022-12-05T11:09:32.660Z,101204.53
2022-12-05T11:12:05.548Z,101210.66
2022-12-05T11:14:34.325Z,101223.69
2022-12-05T11:17:02.249Z,101215.88
2022-12-05T11:19:32.602Z,101193.25
2022-12-05T11:21:59.534Z,101211.63
2022-12-05T11:24:25.810Z,101212.41
2022-12-05T11:26:52.755Z,101211.34
2022-12-05T11:29:58.127Z,101216.59
2022-12-05T11:32:27.705Z,101161.81
2022-12-05T11:35:03.211Z,101223.44
2022-12-05T11:37:43.195Z,101173.94
2022-12-05T11:40:16.308Z,101159.94
2022-12-05T11:43:29.892Z,101154.81
2022-12-05T11:46:11.961Z,101220.00
2022-12-05T11:49:08.299Z,101206.19
2022-12-05T11:51:54.817Z,101193.97
2022-12-05T11:55:05.110Z,101214.06
2022-12-05T11:57:52.584Z,101214.94
2022-12-05T12:00:22.381Z,101211.50
2022-12-05T12:03:33.804Z,101194.09
2022-12-05T12:06:21.055Z,101213.28
2022-12-05T12:09:10.458Z,101214.94
2022-12-05T12:11:49.984Z,101208.06
2022-12-05T12:14:25.376Z,101213.28
2022-12-05T12:17:20.659Z,101190.59
2022-12-05T12:19:55.399Z,101216.59
2022-12-05T12:22:31.932Z,101180.75
2022-12-05T12:25:16.487Z,101218.16
2022-12-05T12:28:05.227Z,101197.38
2022-12-05T12:30:57.470Z,101166.06
2022-12-05T12:34:21.973Z,101099.16
2022-12-05T12:37:04.807Z,101104.31
2022-12-05T12:39:49.611Z,101167.53
2022-12-05T12:42:58.712Z,101151.84
2022-12-05T12:45:34.301Z,101221.38
2022-12-05T12:48:16.083Z,101190.00
2022-12-05T12:50:45.246Z,101118.69
2022-12-05T12:53:33.695Z,101208.13
2022-12-05T12:56:21.392Z,101207.22
2022-12-05T12:58:56.961Z,101211.50
2022-12-05T13:01:54.007Z,101208.91
2022-12-05T13:04:28.863Z,101164.47
2022-12-05T13:07:04.888Z,101132.28
2022-12-05T13:09:47.321Z,101118.34
2022-12-05T13:12:23.137Z,101161.91
2022-12-05T13:14:54.287Z,101157.59
2022-12-05T13:17:23.365Z,101204.50
2022-12-05T13:19:52.320Z,101203.63
2022-12-05T13:22:22.334Z,101220.84
2022-12-05T13:24:53.026Z,101106.22
2022-12-05T13:30:57.676Z,101194.25
2022-12-05T13:33:32.737Z,101127.09
2022-12-05T13:36:27.229Z,101207.97
2022-12-05T13:39:21.757Z,101153.16
2022-12-05T13:42:11.000Z,101192.19
2022-12-05T13:44:45.131Z,101172.25
2022-12-05T13:47:37.703Z,101204.63
2022-12-05T13:50:14.252Z,101182.91
2022-12-05T13:52:52.090Z,101215.03
2022-12-05T13:55:36.549Z,101208.16
2022-12-05T13:58:37.666Z,101215.19
2022-12-05T14:01:37.010Z,101212.53
2022-12-05T14:04:23.247Z,101212.53
2022-12-05T14:06:52.633Z,101215.22
2022-12-05T14:09:19.055Z,101214.25
2022-12-05T14:12:12.152Z,101190.72
2022-12-05T14:15:03.946Z,101222.75
2022-12-05T14:17:44.145Z,101208.94
2022-12-05T14:20:21.475Z,101215.78
2022-12-05T14:22:54.716Z,101224.34
2022-12-05T14:25:35.727Z,101224.38
2022-12-05T14:28:18.724Z,101180.88
2022-12-05T14:31:25.848Z,101221.75
2022-12-05T14:34:36.885Z,101231.31
2022-12-05T14:37:03.321Z,101223.59
2022-12-05T14:39:44.007Z,101231.31
2022-12-05T14:42:22.948Z,101228.63
2022-12-05T14:44:51.893Z,101199.88
2022-12-05T14:47:25.332Z,101214.63
2022-12-05T14:50:04.280Z,101230.25
2022-12-05T14:52:31.984Z,101121.44
2022-12-05T14:55:03.986Z,101147.47
2022-12-05T14:57:34.437Z,101213.47
2022-12-05T15:00:06.548Z,101233.38
2022-12-05T15:02:39.325Z,101190.78
2022-12-05T15:05:22.336Z,101226.44
2022-12-05T15:07:50.918Z,101248.00
2022-12-05T15:10:24.945Z,101218.31
2022-12-05T15:12:58.227Z,101232.03
2022-12-05T15:15:41.551Z,101227.69
2022-12-05T15:18:28.686Z,101207.63
2022-12-05T15:21:16.262Z,101256.28
2022-12-05T15:23:42.601Z,101252.88
2022-12-05T15:29:12.173Z,101206.66
2022-12-05T15:31:58.460Z,101252.03
2022-12-05T15:34:34.937Z,101255.44
2022-12-05T15:37:29.103Z,101229.44
2022-12-05T15:40:09.216Z,101243.25
2022-12-05T15:42:43.645Z,101219.63
2022-12-05T15:45:15.924Z,101262.19
2022-12-05T15:47:50.764Z,101253.34
2022-12-05T15:50:22.800Z,101273.25
2022-12-05T15:53:00.020Z,101271.50
2022-12-05T15:55:26.303Z,101267.19
2022-12-05T15:58:09.652Z,101255.81
2022-12-05T16:00:43.649Z,101225.16
2022-12-05T16:03:19.984Z,101250.34
2022-12-05T16:05:49.087Z,101281.00
2022-12-05T16:08:15.967Z,101227.69
2022-12-05T16:10:43.192Z,101278.22
2022-12-05T16:13:15.501Z,101260.84
2022-12-05T16:15:56.584Z,101218.19
2022-12-05T16:18:31.364Z,101147.56
2022-12-05T16:20:58.296Z,101284.44
2022-12-05T16:23:37.302Z,101182.50
2022-12-05T16:26:12.478Z,101286.16
2022-12-05T16:28:39.227Z,101169.41
2022-12-05T16:31:06.643Z,101164.97
2022-12-05T16:33:33.285Z,101266.09
2022-12-05T16:36:12.726Z,101262.47
2022-12-05T16:38:40.959Z,101272.09
2022-12-05T16:41:09.112Z,101262.41
2022-12-05T16:43:35.449Z,101294.63
2022-12-05T16:46:36.766Z,101289.53
2022-12-05T16:49:32.013Z,101301.69
2022-12-05T16:52:07.492Z,101297.31
2022-12-05T16:54:33.953Z,101262.34
2022-12-05T16:57:01.532Z,101191.06
2022-12-05T16:59:33.919Z,101290.44
2022-12-05T17:02:02.193Z,101274.72
2022-12-05T17:04:31.224Z,101163.31
2022-12-05T17:06:57.594Z,101273.19
2022-12-05T17:09:24.298Z,101264.34
2022-12-05T17:11:53.815Z,101282.59
2022-12-05T17:14:20.382Z,101241.69
2022-12-05T17:16:46.965Z,101271.31
2022-12-05T17:19:14.537Z,101271.19
2022-12-05T17:21:42.198Z,101294.91
2022-12-05T17:24:18.937Z,101292.34
2022-12-05T17:26:47.253Z,101209.53
2022-12-05T17:29:13.608Z,101191.13
2022-12-05T17:31:40.138Z,101268.66
2022-12-05T17:34:15.617Z,101296.69
2022-12-05T17:36:42.059Z,101281.78
2022-12-05T17:39:09.166Z,101264.41
2022-12-05T17:41:36.079Z,101219.91
2022-12-05T17:44:04.010Z,101292.09
2022-12-05T17:46:30.625Z,101280.06
2022-12-05T17:48:56.994Z,101226.00
2022-12-05T17:51:24.020Z,101303.59
2022-12-05T17:53:52.823Z,101271.13
2022-12-05T17:56:19.421Z,101295.72
2022-12-05T17:58:46.096Z,101197.19
2022-12-05T18:01:19.251Z,101191.25
2022-12-05T18:03:49.315Z,101301.13
2022-12-05T18:06:16.884Z,101291.28
2022-12-05T18:08:49.704Z,101175.72
2022-12-05T18:11:16.559Z,101273.00
2022-12-05T18:13:45.181Z,101173.72
2022-12-05T18:16:12.457Z,101278.28
2022-12-05T18:18:39.456Z,101304.22
2022-12-05T18:21:12.027Z,101150.03
2022-12-05T18:23:40.354Z,101166.72
2022-12-05T18:26:09.371Z,101185.13
2022-12-05T18:28:37.588Z,101184.88
2022-12-05T18:31:11.908Z,101184.28
2022-12-05T18:33:41.160Z,101172.09
2022-12-05T18:36:10.138Z,101104.34
2022-12-05T18:38:37.178Z,101307.94
2022-12-05T18:41:06.438Z,101267.81
2022-12-05T18:43:33.111Z,101345.09
2022-12-05T18:46:01.069Z,101220.00
2022-12-05T18:48:39.318Z,101185.91
2022-12-05T18:51:11.612Z,101265.38
2022-12-05T18:53:38.718Z,101261.03
2022-12-05T18:56:22.162Z,101311.59
2022-12-05T18:59:00.099Z,101331.59
2022-12-05T19:01:28.439Z,101232.19
2022-12-05T19:03:57.079Z,101316.94
2022-12-05T19:06:29.378Z,101144.47
2022-12-05T19:08:58.394Z,101262.66
2022-12-05T19:11:26.476Z,101166.81
2022-12-05T19:14:01.220Z,101179.97
2022-12-05T19:16:29.073Z,101188.81
2022-12-05T19:18:58.371Z,101333.50
2022-12-05T19:21:26.524Z,101329.09
2022-12-05T19:23:53.610Z,101257.31
2022-12-05T19:26:20.785Z,101244.38
2022-12-05T19:28:47.643Z,101278.34
2022-12-05T19:31:17.228Z,101351.72
2022-12-05T19:33:45.794Z,101353.22
2022-12-05T19:36:15.371Z,101327.78
2022-12-05T19:38:43.642Z,101264.16
2022-12-05T19:41:12.547Z,101360.22
2022-12-05T19:43:40.780Z,101276.69
2022-12-05T19:46:10.960Z,101364.66
2022-12-05T19:48:37.540Z,101368.16
2022-12-05T19:51:04.268Z,101296.56
2022-12-05T19:53:33.614Z,101366.50
2022-12-05T19:56:01.764Z,101266.25
2022-12-05T19:58:30.730Z,101335.97
2022-12-05T20:01:11.092Z,101330.97
2022-12-05T20:03:37.870Z,101348.22
2022-12-05T20:06:07.067Z,101281.06
2022-12-05T20:08:35.318Z,101280.16
2022-12-05T20:11:11.285Z,101332.47
2022-12-05T20:13:46.586Z,101347.44
2022-12-05T20:16:15.765Z,101331.81
2022-12-05T20:18:43.935Z,101293.56
2022-12-05T20:21:12.728Z,101332.81
2022-12-05T20:23:39.376Z,101345.81
2022-12-05T20:26:11.975Z,101343.28
2022-12-05T20:28:39.044Z,101329.28
2022-12-05T20:31:07.056Z,101335.28
2022-12-05T20:33:34.139Z,101259.56
2022-12-05T20:36:05.942Z,101311.84
2022-12-05T20:38:32.474Z,101259.59
2022-12-05T20:41:07.537Z,101341.59
2022-12-05T20:43:34.677Z,101327.59
2022-12-05T20:46:10.288Z,101254.50
2022-12-05T20:48:36.726Z,101244.22
2022-12-05T20:51:08.223Z,101310.78
2022-12-05T20:53:36.986Z,101261.34
2022-12-05T20:56:08.727Z,101348.47
2022-12-05T20:58:36.097Z,101350.31
2022-12-05T21:01:06.227Z,101273.72
2022-12-05T21:03:32.849Z,101324.13
2022-12-05T21:05:59.732Z,101325.13
2022-12-05T21:08:26.116Z,101306.75
2022-12-05T21:10:52.910Z,101312.19
2022-12-05T21:13:19.643Z,101326.97
2022-12-05T21:15:46.143Z,101311.19
2022-12-05T21:18:12.619Z,101306.91
2022-12-05T21:20:42.122Z,101273.00
2022-12-05T21:23:09.073Z,101326.13
2022-12-05T21:25:35.416Z,101277.16
2022-12-05T21:28:02.109Z,101279.09
2022-12-05T21:30:28.470Z,101313.94
2022-12-05T21:32:55.571Z,101327.81
2022-12-05T21:35:21.961Z,101313.81
2022-12-05T21:37:48.305Z,101282.59
2022-12-05T21:40:14.646Z,101297.34
2022-12-05T21:42:41.021Z,101306.13
2022-12-05T21:45:07.838Z,101304.44
2022-12-05T21:47:34.235Z,101236.59
2022-12-05T21:50:00.909Z,101295.81
2022-12-05T21:52:27.434Z,101239.91
2022-12-05T21:54:53.812Z,101299.25
2022-12-05T21:57:20.234Z,101315.00
2022-12-05T21:59:46.637Z,101314.09
2022-12-05T22:02:12.964Z,101329.78
2022-12-05T22:04:39.264Z,101289.84
2022-12-05T22:07:05.605Z,101223.53
2022-12-05T22:09:31.924Z,101303.59
2022-12-05T22:11:58.371Z,101327.16
2022-12-05T22:14:24.783Z,101301.84
2022-12-05T22:16:51.205Z,101321.88
2022-12-05T22:19:17.540Z,101298.47
2022-12-05T22:21:43.901Z,101317.69
2022-12-05T22:24:10.278Z,101313.38
2022-12-05T22:26:36.619Z,101328.16
2022-12-05T22:29:02.933Z,101242.94
2022-12-05T22:31:29.369Z,101335.34
2022-12-05T22:33:55.730Z,101330.06
2022-12-05T22:36:24.084Z,101300.31
2022-12-05T22:38:50.616Z,101305.72
2022-12-05T22:41:22.688Z,101331.97
2022-12-05T22:43:52.859Z,101303.16
2022-12-05T22:46:20.537Z,101229.03
2022-12-05T22:48:48.228Z,101296.94
2022-12-05T22:51:15.397Z,101340.63
2022-12-05T22:53:42.329Z,101301.41
2022-12-05T22:56:11.130Z,101332.78
2022-12-05T22:58:38.593Z,101332.00
2022-12-05T23:01:12.470Z,101318.06
2022-12-05T23:03:39.605Z,101330.28
2022-12-05T23:06:11.478Z,101189.09
2022-12-05T23:08:39.182Z,101264.00
2022-12-05T23:11:06.496Z,101264.88
2022-12-05T23:13:34.886Z,101298.69
2022-12-05T23:16:11.001Z,101310.03
2022-12-05T23:18:47.271Z,101308.44
2022-12-05T23:21:17.994Z,101320.09
2022-12-05T23:23:44.935Z,101220.84
2022-12-05T23:26:11.979Z,101313.88
2022-12-05T23:28:38.657Z,101223.97
2022-12-05T23:31:06.568Z,101287.78
2022-12-05T23:33:33.344Z,101304.41
2022-12-05T23:35:59.737Z,101288.88
2022-12-05T23:38:26.214Z,101290.63
2022-12-05T23:41:00.779Z,101267.00
2022-12-05T23:43:28.796Z,101285.16
2022-12-05T23:45:55.301Z,101219.00
2022-12-05T23:48:21.864Z,101217.41
2022-12-05T23:50:59.915Z,101315.66
2022-12-05T23:53:27.403Z,101310.38
2022-12-05T23:55:53.852Z,101285.16
2022-12-05T23:58:20.402Z,101257.19
